Fykan — LLDJ — position and weather

sailwx.info

Track history (hours):
 
Tides and Currents Weather Stations Pressure Air Temp Water Temp Dewpoint Dewpoint Depression Visibility Wind Speed Wind Dir Waves Ship Positions

Fykan

Last reported at 2016-Dec-03 04:33 UTC. Time now 2016-Dec-05 20:37 UTC.
Position N 66°49' E 013°34'.

Length 52 m; draft 3.3 m.

Type: Ship. MMSI: 259681000.

Date/timePositionNaut miles runAvg speedWind from/ knotsBaromVisibWave heightAir tempDewpointWater temp
2016-Dec-03 04:33N 66°49' E 013°34'0 0.4
2016-Dec-03 03:32N 66°50' E 013°33'0 0.0
2016-Dec-03 02:33N 66°50' E 013°33'3 2.9
2016-Dec-03 01:33N 66°49' E 013°27'4 4.3
2016-Dec-03 00:32N 66°48' E 013°15'7 6.8
2016-Dec-02 23:33N 66°49' E 013°32'5 1.9
2016-Dec-02 21:13N 66°52' E 013°41'4 5.7
2016-Dec-02 20:32N 66°50' E 013°33'3 3.0
2016-Dec-02 19:33N 66°50' E 013°41'2 1.7
2016-Dec-02 18:33N 66°52' E 013°42'3 3.4
2016-Dec-02 17:32N 66°50' E 013°35'1 0.7
2016-Dec-02 16:33N 66°50' E 013°33'6 1.5
2016-Dec-02 12:23N 66°56' E 013°26'6 7.0
2016-Dec-02 11:32N 66°52' E 013°38'2 2.0
2016-Dec-02 10:33N 66°50' E 013°39'2 1.8
2016-Dec-02 09:33N 66°50' E 013°35'1 0.9
2016-Dec-02 08:34N 66°50' E 013°33'0 0.0
2016-Dec-02 07:33N 66°50' E 013°33'0 0.0
2016-Dec-02 06:30N 66°50' E 013°33'0 0.0
2016-Dec-02 05:32N 66°50' E 013°33'0 0.0
2016-Dec-02 04:33N 66°50' E 013°33'0 0.0
2016-Dec-02 03:32N 66°50' E 013°33'0 0.0
2016-Dec-02 02:32N 66°50' E 013°33'0 0.0
2016-Dec-02 01:33N 66°50' E 013°33'3 3.5
2016-Dec-02 00:33N 66°51' E 013°41'1 0.8
2016-Dec-01 23:33N 66°52' E 013°42'5 4.4
2016-Dec-01 22:32N 66°48' E 013°35'3 3.0
2016-Dec-01 21:33N 66°49' E 013°28'5 5.4
2016-Dec-01 20:33N 66°48' E 013°14'0 0.0
2016-Dec-01 19:34N 66°48' E 013°14'0 0.0
2016-Dec-01 18:33N 66°48' E 013°14'0 0.0
2016-Dec-01 17:33N 66°48' E 013°14'0 0.0
2016-Dec-01 16:33N 66°48' E 013°14'0 0.0
2016-Dec-01 15:33N 66°48' E 013°14'0 0.0
2016-Dec-01 14:33N 66°48' E 013°14'0 0.0
2016-Dec-01 13:33N 66°48' E 013°14'0 0.0
2016-Dec-01 12:32N 66°48' E 013°14'0 0.0
2016-Dec-01 11:32N 66°48' E 013°14'0 0.0
2016-Dec-01 10:33N 66°48' E 013°14'0 0.0
2016-Dec-01 09:33N 66°48' E 013°14'3 3.0
2016-Dec-01 08:33N 66°48' E 013°22'5 4.9
2016-Dec-01 07:33N 66°50' E 013°33'4 3.5
2016-Dec-01 06:33N 66°51' E 013°42'2 2.0
2016-Dec-01 05:33N 66°50' E 013°39'2 1.9
2016-Dec-01 04:33N 66°52' E 013°38'2 2.0
2016-Dec-01 03:34N 66°52' E 013°42'2 2.2
2016-Dec-01 02:33N 66°51' E 013°37'2 2.4
2016-Dec-01 01:33N 66°49' E 013°35'4 4.2
2016-Dec-01 00:33N 66°52' E 013°41'3 3.3
2016-Nov-30 23:33N 66°49' E 013°38'2 2.2
2016-Nov-30 22:33N 66°49' E 013°32'6 6.3
2016-Nov-30 21:33N 66°48' E 013°16'1 0.9
2016-Nov-30 20:33N 66°48' E 013°14'1 0.7
2016-Nov-30 19:33N 66°48' E 013°16'6 5.9
2016-Nov-30 18:33N 66°49' E 013°31'3 3.0
2016-Nov-30 17:33N 66°49' E 013°38'3 3.0
2016-Nov-30 16:33N 66°52' E 013°42'0 0.3
2016-Nov-30 15:33N 66°52' E 013°42'4 4.3
2016-Nov-30 14:33N 66°49' E 013°35'4 4.4
2016-Nov-30 13:33N 66°52' E 013°42'1 0.5
2016-Nov-30 12:33N 66°52' E 013°42'4 3.6
2016-Nov-30 11:33N 66°50' E 013°34'5 4.6
2016-Nov-30 10:33N 66°48' E 013°23'3 3.3
2016-Nov-30 09:33N 66°48' E 013°14'0 0.0
2016-Nov-30 08:32N 66°48' E 013°14'0 0.0
2016-Nov-30 07:33N 66°48' E 013°14'0 0.0
2016-Nov-30 06:33N 66°48' E 013°14'0 0.0
2016-Nov-30 05:33N 66°48' E 013°14'0 0.0
2016-Nov-30 04:33N 66°48' E 013°14'0 0.0
2016-Nov-30 03:33N 66°48' E 013°14'0 0.0
2016-Nov-30 02:33N 66°48' E 013°14'0 0.0
2016-Nov-30 01:33N 66°48' E 013°14'0 0.3
2016-Nov-30 00:33N 66°48' E 013°15'9 8.6
2016-Nov-29 23:34N 66°56' E 013°26'0 0.0
2016-Nov-29 22:33N 66°56' E 013°26'7 6.9
2016-Nov-29 21:31N 66°52' E 013°42'5 5.2
2016-Nov-29 20:33N 66°54' E 013°31'0 0.4
2016-Nov-29 19:33N 66°55' E 013°31'5 5.3
2016-Nov-29 18:33N 66°52' E 013°42'4 4.4
2016-Nov-29 17:33N 66°48' E 013°35'4 4.2
2016-Nov-29 16:33N 66°52' E 013°40'2 2.0
2016-Nov-29 15:33N 66°51' E 013°36'1 1.4
2016-Nov-29 14:33N 66°50' E 013°33'4 4.1
2016-Nov-29 13:33N 66°52' E 013°42'5 4.5
2016-Nov-29 12:33N 66°48' E 013°35'3 2.8
2016-Nov-29 11:33N 66°49' E 013°28'6 5.5
2016-Nov-29 10:33N 66°48' E 013°14'0 0.1
2016-Nov-29 09:33N 66°48' E 013°14'0 0.0
2016-Nov-29 08:33N 66°48' E 013°14'5 4.6
2016-Nov-29 07:32N 66°49' E 013°26'4 3.8
2016-Nov-29 06:32N 66°49' E 013°35'4 4.4
2016-Nov-29 05:33N 66°52' E 013°42'5 4.5
2016-Nov-29 04:33N 66°48' E 013°35'2 1.6
2016-Nov-29 03:34N 66°50' E 013°33'0 0.0
2016-Nov-29 02:33N 66°50' E 013°33'0 0.0
2016-Nov-29 01:33N 66°50' E 013°33'0 0.0
2016-Nov-29 00:33N 66°50' E 013°33'0 0.0
2016-Nov-28 23:33N 66°50' E 013°33'0 0.0
2016-Nov-28 22:33N 66°50' E 013°33'0 0.0
2016-Nov-28 21:33N 66°50' E 013°33'0 0.0
2016-Nov-28 20:33N 66°50' E 013°33'0 0.0
2016-Nov-28 19:33N 66°50' E 013°33'0 0.0
2016-Nov-28 18:33N 66°50' E 013°33'0 0.0
2016-Nov-28 17:33N 66°50' E 013°33'0 0.0
2016-Nov-28 16:33N 66°50' E 013°33'0 0.0
2016-Nov-28 15:33N 66°50' E 013°33'0 0.0
2016-Nov-28 14:34N 66°50' E 013°33'0 0.0
2016-Nov-28 13:33N 66°50' E 013°33'0 0.0
2016-Nov-28 12:33N 66°50' E 013°33'0 0.0
2016-Nov-28 11:33N 66°50' E 013°33'3 3.0
2016-Nov-28 10:33N 66°50' E 013°41'2 1.7
2016-Nov-28 09:33N 66°49' E 013°38'3 2.7
2016-Nov-28 08:33N 66°49' E 013°31'6 6.2
2016-Nov-28 07:33N 66°48' E 013°16'5 5.0
2016-Nov-28 06:33N 66°49' E 013°28'3 3.4
2016-Nov-28 05:32N 66°49' E 013°37'4 3.8
2016-Nov-28 04:33N 66°52' E 013°42'5 5.1
2016-Nov-28 03:33N 66°54' E 013°30'1 1.3
2016-Nov-28 02:33N 66°56' E 013°29'6 6.2
2016-Nov-28 01:33N 66°52' E 013°42'4 3.7
2016-Nov-28 00:33N 66°49' E 013°37'2 1.6
2016-Nov-27 23:32N 66°50' E 013°33'0 0.0
2016-Nov-27 22:32N 66°50' E 013°33'1 0.7
2016-Nov-27 21:33N 66°49' E 013°34'4 3.8
2016-Nov-27 20:33N 66°52' E 013°42'0 0.2
2016-Nov-27 19:33N 66°52' E 013°42'4 3.7
2016-Nov-27 18:33N 66°50' E 013°34'3 2.5
2016-Nov-27 17:33N 66°50' E 013°41'2 1.8
2016-Nov-27 16:33N 66°52' E 013°42'4 4.1
2016-Nov-27 15:32N 66°50' E 013°34'0 0.2
2016-Nov-27 14:32N 66°50' E 013°33'0 0.0
2016-Nov-27 13:33N 66°50' E 013°33'0 0.0
2016-Nov-27 12:33N 66°50' E 013°33'0 0.0
2016-Nov-27 11:33N 66°50' E 013°33'0 0.0
2016-Nov-27 10:33N 66°50' E 013°33'0 0.0
2016-Nov-27 09:33N 66°50' E 013°33'0 0.0
2016-Nov-27 08:32N 66°50' E 013°33'0 0.0
2016-Nov-27 07:33N 66°50' E 013°33'0 0.0
2016-Nov-27 06:33N 66°50' E 013°33'2 1.9
2016-Nov-27 05:27N 66°50' E 013°39'2 2.2
2016-Nov-27 04:33N 66°51' E 013°41'10 4.9
2016-Nov-27 02:33N 66°48' E 013°18'7 3.4
2016-Nov-27 00:33N 66°48' E 013°35'4 4.5
2016-Nov-26 23:33N 66°52' E 013°42'1 0.8
2016-Nov-26 22:33N 66°52' E 013°40'4 4.5
2016-Nov-26 21:32N 66°48' E 013°35'5 4.5
2016-Nov-26 20:32N 66°52' E 013°42'0 0.4
2016-Nov-26 19:33N 66°52' E 013°41'4 3.5
2016-Nov-26 18:32N 66°50' E 013°34'2 2.1
2016-Nov-26 17:33N 66°52' E 013°38'6 1.8
2016-Nov-26 14:19N 66°56' E 013°27'1 0.9
2016-Nov-26 13:33N 66°56' E 013°26'0 0.0
2016-Nov-26 12:33N 66°56' E 013°26'4 3.6
2016-Nov-26 11:33N 66°53' E 013°32'4 4.1
2016-Nov-26 10:29N 66°49' E 013°35'4 4.7
2016-Nov-26 09:33N 66°52' E 013°42'0 0.2
2016-Nov-26 08:33N 66°52' E 013°42'4 4.0
2016-Nov-26 07:32N 66°49' E 013°34'3 3.0
2016-Nov-26 06:33N 66°51' E 013°41'2 1.5
2016-Nov-26 05:33N 66°52' E 013°42'4 4.1
2016-Nov-26 04:32N 66°49' E 013°36'2 1.6
2016-Nov-26 03:33N 66°50' E 013°33'0 0.0
2016-Nov-26 02:33N 66°50' E 013°33'0 0.0
2016-Nov-26 01:33N 66°50' E 013°33'0 0.0
2016-Nov-26 00:33N 66°50' E 013°33'0 0.0
2016-Nov-25 23:33N 66°50' E 013°33'0 0.0
2016-Nov-25 22:32N 66°50' E 013°33'0 0.0
2016-Nov-25 21:33N 66°50' E 013°33'0 0.0
2016-Nov-25 20:33N 66°50' E 013°33'0 0.0
2016-Nov-25 19:33N 66°50' E 013°33'2 1.6
2016-Nov-25 18:33N 66°49' E 013°37'4 3.5
2016-Nov-25 17:33N 66°52' E 013°42'0 0.3
2016-Nov-25 16:33N 66°52' E 013°42'6 1.4
2016-Nov-25 12:30N 66°55' E 013°30'  
Track history (hours):
 
Tides and Currents Weather Stations Pressure Air Temp Water Temp Dewpoint Dewpoint Depression Visibility Wind Speed Wind Dir Waves Ship Positions

Fykan

Last reported at 2016-Dec-03 04:33 UTC. Time now 2016-Dec-05 20:37 UTC.
Position N 66°49' E 013°34'.

Length 52 m; draft 3.3 m.

Type: Ship. MMSI: 259681000.

Date/timePositionNaut miles runAvg speedWind from/ knotsBaromVisibWave heightAir tempDewpointWater temp
2016-Dec-03 04:33N 66°49' E 013°34'0 0.4
2016-Dec-03 03:32N 66°50' E 013°33'0 0.0
2016-Dec-03 02:33N 66°50' E 013°33'3 2.9
2016-Dec-03 01:33N 66°49' E 013°27'4 4.3
2016-Dec-03 00:32N 66°48' E 013°15'7 6.8
2016-Dec-02 23:33N 66°49' E 013°32'5 1.9
2016-Dec-02 21:13N 66°52' E 013°41'4 5.7
2016-Dec-02 20:32N 66°50' E 013°33'3 3.0
2016-Dec-02 19:33N 66°50' E 013°41'2 1.7
2016-Dec-02 18:33N 66°52' E 013°42'3 3.4
2016-Dec-02 17:32N 66°50' E 013°35'1 0.7
2016-Dec-02 16:33N 66°50' E 013°33'6 1.5
2016-Dec-02 12:23N 66°56' E 013°26'6 7.0
2016-Dec-02 11:32N 66°52' E 013°38'2 2.0
2016-Dec-02 10:33N 66°50' E 013°39'2 1.8
2016-Dec-02 09:33N 66°50' E 013°35'1 0.9
2016-Dec-02 08:34N 66°50' E 013°33'0 0.0
2016-Dec-02 07:33N 66°50' E 013°33'0 0.0
2016-Dec-02 06:30N 66°50' E 013°33'0 0.0
2016-Dec-02 05:32N 66°50' E 013°33'0 0.0
2016-Dec-02 04:33N 66°50' E 013°33'0 0.0
2016-Dec-02 03:32N 66°50' E 013°33'0 0.0
2016-Dec-02 02:32N 66°50' E 013°33'0 0.0
2016-Dec-02 01:33N 66°50' E 013°33'3 3.5
2016-Dec-02 00:33N 66°51' E 013°41'1 0.8
2016-Dec-01 23:33N 66°52' E 013°42'5 4.4
2016-Dec-01 22:32N 66°48' E 013°35'3 3.0
2016-Dec-01 21:33N 66°49' E 013°28'5 5.4
2016-Dec-01 20:33N 66°48' E 013°14'0 0.0
2016-Dec-01 19:34N 66°48' E 013°14'0 0.0
2016-Dec-01 18:33N 66°48' E 013°14'0 0.0
2016-Dec-01 17:33N 66°48' E 013°14'0 0.0
2016-Dec-01 16:33N 66°48' E 013°14'0 0.0
2016-Dec-01 15:33N 66°48' E 013°14'0 0.0
2016-Dec-01 14:33N 66°48' E 013°14'0 0.0
2016-Dec-01 13:33N 66°48' E 013°14'0 0.0
2016-Dec-01 12:32N 66°48' E 013°14'0 0.0
2016-Dec-01 11:32N 66°48' E 013°14'0 0.0
2016-Dec-01 10:33N 66°48' E 013°14'0 0.0
2016-Dec-01 09:33N 66°48' E 013°14'3 3.0
2016-Dec-01 08:33N 66°48' E 013°22'5 4.9
2016-Dec-01 07:33N 66°50' E 013°33'4 3.5
2016-Dec-01 06:33N 66°51' E 013°42'2 2.0
2016-Dec-01 05:33N 66°50' E 013°39'2 1.9
2016-Dec-01 04:33N 66°52' E 013°38'2 2.0
2016-Dec-01 03:34N 66°52' E 013°42'2 2.2
2016-Dec-01 02:33N 66°51' E 013°37'2 2.4
2016-Dec-01 01:33N 66°49' E 013°35'4 4.2
2016-Dec-01 00:33N 66°52' E 013°41'3 3.3
2016-Nov-30 23:33N 66°49' E 013°38'2 2.2
2016-Nov-30 22:33N 66°49' E 013°32'6 6.3
2016-Nov-30 21:33N 66°48' E 013°16'1 0.9
2016-Nov-30 20:33N 66°48' E 013°14'1 0.7
2016-Nov-30 19:33N 66°48' E 013°16'6 5.9
2016-Nov-30 18:33N 66°49' E 013°31'3 3.0
2016-Nov-30 17:33N 66°49' E 013°38'3 3.0
2016-Nov-30 16:33N 66°52' E 013°42'0 0.3
2016-Nov-30 15:33N 66°52' E 013°42'4 4.3
2016-Nov-30 14:33N 66°49' E 013°35'4 4.4
2016-Nov-30 13:33N 66°52' E 013°42'1 0.5
2016-Nov-30 12:33N 66°52' E 013°42'4 3.6
2016-Nov-30 11:33N 66°50' E 013°34'5 4.6
2016-Nov-30 10:33N 66°48' E 013°23'3 3.3
2016-Nov-30 09:33N 66°48' E 013°14'0 0.0
2016-Nov-30 08:32N 66°48' E 013°14'0 0.0
2016-Nov-30 07:33N 66°48' E 013°14'0 0.0
2016-Nov-30 06:33N 66°48' E 013°14'0 0.0
2016-Nov-30 05:33N 66°48' E 013°14'0 0.0
2016-Nov-30 04:33N 66°48' E 013°14'0 0.0
2016-Nov-30 03:33N 66°48' E 013°14'0 0.0
2016-Nov-30 02:33N 66°48' E 013°14'0 0.0
2016-Nov-30 01:33N 66°48' E 013°14'0 0.3
2016-Nov-30 00:33N 66°48' E 013°15'9 8.6
2016-Nov-29 23:34N 66°56' E 013°26'0 0.0
2016-Nov-29 22:33N 66°56' E 013°26'7 6.9
2016-Nov-29 21:31N 66°52' E 013°42'5 5.2
2016-Nov-29 20:33N 66°54' E 013°31'0 0.4
2016-Nov-29 19:33N 66°55' E 013°31'5 5.3
2016-Nov-29 18:33N 66°52' E 013°42'4 4.4
2016-Nov-29 17:33N 66°48' E 013°35'4 4.2
2016-Nov-29 16:33N 66°52' E 013°40'2 2.0
2016-Nov-29 15:33N 66°51' E 013°36'1 1.4
2016-Nov-29 14:33N 66°50' E 013°33'4 4.1
2016-Nov-29 13:33N 66°52' E 013°42'5 4.5
2016-Nov-29 12:33N 66°48' E 013°35'3 2.8
2016-Nov-29 11:33N 66°49' E 013°28'6 5.5
2016-Nov-29 10:33N 66°48' E 013°14'0 0.1
2016-Nov-29 09:33N 66°48' E 013°14'0 0.0
2016-Nov-29 08:33N 66°48' E 013°14'5 4.6
2016-Nov-29 07:32N 66°49' E 013°26'4 3.8
2016-Nov-29 06:32N 66°49' E 013°35'4 4.4
2016-Nov-29 05:33N 66°52' E 013°42'5 4.5
2016-Nov-29 04:33N 66°48' E 013°35'2 1.6
2016-Nov-29 03:34N 66°50' E 013°33'0 0.0
2016-Nov-29 02:33N 66°50' E 013°33'0 0.0
2016-Nov-29 01:33N 66°50' E 013°33'0 0.0
2016-Nov-29 00:33N 66°50' E 013°33'0 0.0
2016-Nov-28 23:33N 66°50' E 013°33'0 0.0
2016-Nov-28 22:33N 66°50' E 013°33'0 0.0
2016-Nov-28 21:33N 66°50' E 013°33'0 0.0
2016-Nov-28 20:33N 66°50' E 013°33'0 0.0
2016-Nov-28 19:33N 66°50' E 013°33'0 0.0
2016-Nov-28 18:33N 66°50' E 013°33'0 0.0
2016-Nov-28 17:33N 66°50' E 013°33'0 0.0
2016-Nov-28 16:33N 66°50' E 013°33'0 0.0
2016-Nov-28 15:33N 66°50' E 013°33'0 0.0
2016-Nov-28 14:34N 66°50' E 013°33'0 0.0
2016-Nov-28 13:33N 66°50' E 013°33'0 0.0
2016-Nov-28 12:33N 66°50' E 013°33'0 0.0
2016-Nov-28 11:33N 66°50' E 013°33'3 3.0
2016-Nov-28 10:33N 66°50' E 013°41'2 1.7
2016-Nov-28 09:33N 66°49' E 013°38'3 2.7
2016-Nov-28 08:33N 66°49' E 013°31'6 6.2
2016-Nov-28 07:33N 66°48' E 013°16'5 5.0
2016-Nov-28 06:33N 66°49' E 013°28'3 3.4
2016-Nov-28 05:32N 66°49' E 013°37'4 3.8
2016-Nov-28 04:33N 66°52' E 013°42'5 5.1
2016-Nov-28 03:33N 66°54' E 013°30'1 1.3
2016-Nov-28 02:33N 66°56' E 013°29'6 6.2
2016-Nov-28 01:33N 66°52' E 013°42'4 3.7
2016-Nov-28 00:33N 66°49' E 013°37'2 1.6
2016-Nov-27 23:32N 66°50' E 013°33'0 0.0
2016-Nov-27 22:32N 66°50' E 013°33'1 0.7
2016-Nov-27 21:33N 66°49' E 013°34'4 3.8
2016-Nov-27 20:33N 66°52' E 013°42'0 0.2
2016-Nov-27 19:33N 66°52' E 013°42'4 3.7
2016-Nov-27 18:33N 66°50' E 013°34'3 2.5
2016-Nov-27 17:33N 66°50' E 013°41'2 1.8
2016-Nov-27 16:33N 66°52' E 013°42'4 4.1
2016-Nov-27 15:32N 66°50' E 013°34'0 0.2
2016-Nov-27 14:32N 66°50' E 013°33'0 0.0
2016-Nov-27 13:33N 66°50' E 013°33'0 0.0
2016-Nov-27 12:33N 66°50' E 013°33'0 0.0
2016-Nov-27 11:33N 66°50' E 013°33'0 0.0
2016-Nov-27 10:33N 66°50' E 013°33'0 0.0
2016-Nov-27 09:33N 66°50' E 013°33'0 0.0
2016-Nov-27 08:32N 66°50' E 013°33'0 0.0
2016-Nov-27 07:33N 66°50' E 013°33'0 0.0
2016-Nov-27 06:33N 66°50' E 013°33'2 1.9
2016-Nov-27 05:27N 66°50' E 013°39'2 2.2
2016-Nov-27 04:33N 66°51' E 013°41'10 4.9
2016-Nov-27 02:33N 66°48' E 013°18'7 3.4
2016-Nov-27 00:33N 66°48' E 013°35'4 4.5
2016-Nov-26 23:33N 66°52' E 013°42'1 0.8
2016-Nov-26 22:33N 66°52' E 013°40'4 4.5
2016-Nov-26 21:32N 66°48' E 013°35'5 4.5
2016-Nov-26 20:32N 66°52' E 013°42'0 0.4
2016-Nov-26 19:33N 66°52' E 013°41'4 3.5
2016-Nov-26 18:32N 66°50' E 013°34'2 2.1
2016-Nov-26 17:33N 66°52' E 013°38'6 1.8
2016-Nov-26 14:19N 66°56' E 013°27'1 0.9
2016-Nov-26 13:33N 66°56' E 013°26'0 0.0
2016-Nov-26 12:33N 66°56' E 013°26'4 3.6
2016-Nov-26 11:33N 66°53' E 013°32'4 4.1
2016-Nov-26 10:29N 66°49' E 013°35'4 4.7
2016-Nov-26 09:33N 66°52' E 013°42'0 0.2
2016-Nov-26 08:33N 66°52' E 013°42'4 4.0
2016-Nov-26 07:32N 66°49' E 013°34'3 3.0
2016-Nov-26 06:33N 66°51' E 013°41'2 1.5
2016-Nov-26 05:33N 66°52' E 013°42'4 4.1
2016-Nov-26 04:32N 66°49' E 013°36'2 1.6
2016-Nov-26 03:33N 66°50' E 013°33'0 0.0
2016-Nov-26 02:33N 66°50' E 013°33'0 0.0
2016-Nov-26 01:33N 66°50' E 013°33'0 0.0
2016-Nov-26 00:33N 66°50' E 013°33'0 0.0
2016-Nov-25 23:33N 66°50' E 013°33'0 0.0
2016-Nov-25 22:32N 66°50' E 013°33'0 0.0
2016-Nov-25 21:33N 66°50' E 013°33'0 0.0
2016-Nov-25 20:33N 66°50' E 013°33'0 0.0
2016-Nov-25 19:33N 66°50' E 013°33'2 1.6
2016-Nov-25 18:33N 66°49' E 013°37'4 3.5
2016-Nov-25 17:33N 66°52' E 013°42'0 0.3
2016-Nov-25 16:33N 66°52' E 013°42'6 1.4
2016-Nov-25 12:30N 66°55' E 013°30'  

Dump ship's entire track history